Time;durP1;ratioP1;P1;durP2;ratioP2;P2;SDS_P1;SDS_P2;PMS_P1;PMS_P2;Temp;Humidity;BMP_temperature;BMP_pressure;BME280_temperature;BME280_humidity;BME280_pressure;Samples;Min_cycle;Max_cycle;Signal;HPM_P1;HPM_P2
2024/04/09 00:01:42;;;;;;;10.40;8.60;;;;;;;17.26;78.92;100269.02;105601;1256;98983;-79
2024/04/09 00:04:28;;;;;;;15.30;9.20;;;;;;;17.23;78.95;100266.36;105597;1255;98582;-79
2024/04/09 00:07:13;;;;;;;13.00;8.90;;;;;;;17.19;79.11;100267.70;105630;1259;98344;-79
2024/04/09 00:09:59;;;;;;;19.40;9.40;;;;;;;17.17;79.38;100270.06;105492;1259;101358;-79
2024/04/09 00:12:46;;;;;;;12.80;9.70;;;;;;;17.13;79.10;100267.13;105600;1260;100416;-79
2024/04/09 00:15:36;;;;;;;12.00;9.00;;;;;;;17.08;78.92;100265.98;105616;1255;97888;-79
2024/04/09 00:18:24;;;;;;;12.80;8.40;;;;;;;17.03;79.31;100265.66;105588;1260;98836;-79
2024/04/09 00:21:09;;;;;;;16.70;9.20;;;;;;;16.99;79.45;100265.56;105689;1255;98027;-79
2024/04/09 00:23:56;;;;;;;13.40;8.90;;;;;;;16.94;79.15;100262.54;105584;1254;102929;-80
2024/04/09 00:26:42;;;;;;;11.00;8.40;;;;;;;16.91;79.28;100260.52;105642;1256;100355;-80
2024/04/09 00:29:28;;;;;;;13.70;9.10;;;;;;;16.88;79.57;100258.33;105254;1256;98577;-79
2024/04/09 00:32:13;;;;;;;17.50;10.60;;;;;;;16.84;79.55;100258.36;105526;1260;97970;-80
2024/04/09 00:34:59;;;;;;;17.40;10.50;;;;;;;16.81;79.94;100255.75;105555;1261;100619;-80
2024/04/09 00:37:44;;;;;;;17.10;11.50;;;;;;;16.78;80.15;100251.46;105597;1255;102141;-79
2024/04/09 00:40:30;;;;;;;18.50;12.40;;;;;;;16.76;80.08;100252.09;105587;1261;99267;-79
2024/04/09 00:43:15;;;;;;;23.50;13.80;;;;;;;16.72;80.19;100246.75;105588;1260;98004;-79
2024/04/09 00:46:01;;;;;;;21.00;14.00;;;;;;;16.68;80.39;100240.88;105502;1258;98020;-79
2024/04/09 00:48:49;;;;;;;19.40;13.90;;;;;;;16.65;80.63;100240.79;105667;1256;97886;-80
2024/04/09 00:51:39;;;;;;;25.40;13.70;;;;;;;16.61;80.78;100241.33;105686;1255;101317;-78
2024/04/09 00:54:24;;;;;;;20.00;13.70;;;;;;;16.59;81.03;100245.30;106130;1257;99707;-79
2024/04/09 00:57:10;;;;;;;21.90;13.10;;;;;;;16.58;81.12;100244.70;105655;1261;99435;-79
2024/04/09 00:59:56;;;;;;;18.30;12.80;;;;;;;16.57;81.13;100242.02;105590;1256;97985;-78
2024/04/09 01:02:42;;;;;;;22.40;13.40;;;;;;;16.55;81.17;100244.30;105589;1261;99386;-79
2024/04/09 01:05:27;;;;;;;16.80;11.00;;;;;;;16.52;81.29;100242.34;105598;1259;102603;-79
2024/04/09 01:08:13;;;;;;;16.60;11.50;;;;;;;16.48;81.24;100243.55;105709;1256;99192;-79
2024/04/09 01:10:58;;;;;;;16.40;10.90;;;;;;;16.41;81.17;100244.29;105551;1255;97955;-80
2024/04/09 01:13:43;;;;;;;14.50;11.30;;;;;;;16.34;81.45;100246.40;105627;1261;98901;-80
2024/04/09 01:16:29;;;;;;;13.00;9.30;;;;;;;16.29;81.50;100244.38;105600;1256;97871;-79
2024/04/09 01:19:14;;;;;;;13.60;10.40;;;;;;;16.22;81.61;100242.81;105587;1258;101353;-79
2024/04/09 01:22:00;;;;;;;17.60;9.60;;;;;;;16.16;81.55;100241.36;105570;1259;99087;-79
2024/04/09 01:24:47;;;;;;;15.00;9.50;;;;;;;16.10;81.47;100240.80;105665;1254;97969;-80
2024/04/09 01:27:33;;;;;;;13.10;9.60;;;;;;;16.03;81.53;100240.74;105705;1261;99138;-80
2024/04/09 01:30:19;;;;;;;12.50;9.00;;;;;;;15.96;81.71;100242.50;105689;1260;98720;-79
2024/04/09 01:33:04;;;;;;;13.80;9.00;;;;;;;15.92;81.88;100250.01;105675;1256;102141;-79
2024/04/09 01:35:51;;;;;;;15.40;9.90;;;;;;;15.88;82.21;100246.48;105658;1255;100364;-80
2024/04/09 01:38:37;;;;;;;12.50;10.00;;;;;;;15.84;82.54;100248.21;105682;1255;98483;-80
2024/04/09 01:41:23;;;;;;;14.50;9.90;;;;;;;15.80;82.61;100249.13;105660;1260;97945;-79
2024/04/09 01:44:08;;;;;;;11.60;9.20;;;;;;;15.75;82.71;100249.38;105508;1261;99149;-80
2024/04/09 01:46:54;;;;;;;12.90;9.10;;;;;;;15.68;82.78;100244.81;105513;1255;102590;-80
2024/04/09 01:49:40;;;;;;;11.90;10.60;;;;;;;15.63;82.94;100242.41;106160;1261;100102;-79
2024/04/09 01:52:26;;;;;;;12.80;10.00;;;;;;;15.57;82.95;100246.45;106168;1260;99542;-79
2024/04/09 01:55:11;;;;;;;11.80;10.30;;;;;;;15.53;83.17;100246.06;105932;1260;97954;-80
2024/04/09 01:57:57;;;;;;;15.20;9.40;;;;;;;15.50;83.12;100242.16;105983;1256;97894;-79
2024/04/09 02:00:43;;;;;;;14.80;10.50;;;;;;;15.47;83.42;100241.81;106059;1260;102748;-79
2024/04/09 02:03:28;;;;;;;12.90;9.70;;;;;;;15.45;83.66;100238.02;105321;1256;99244;-78
2024/04/09 02:06:19;;;;;;;16.00;8.90;;;;;;;15.44;83.95;100239.40;105348;1256;99096;-79
2024/04/09 02:09:05;;;;;;;;;;;;;;;15.43;84.02;100242.55;105726;1256;98381;-81
2024/04/09 02:11:50;;;;;;;12.10;8.90;;;;;;;15.40;84.48;100242.11;106240;1258;98091;-78
2024/04/09 02:14:36;;;;;;;13.80;8.90;;;;;;;15.40;84.75;100240.66;105448;1258;103109;-78
2024/04/09 02:17:21;;;;;;;11.90;9.10;;;;;;;15.40;84.80;100243.78;105599;1260;100376;-80
2024/04/09 02:20:10;;;;;;;13.10;9.70;;;;;;;15.40;85.19;100244.90;105546;1255;98694;-79
2024/04/09 02:22:55;;;;;;;15.70;9.40;;;;;;;15.38;85.20;100247.95;105547;1258;98971;-78
2024/04/09 02:25:40;;;;;;;14.10;9.70;;;;;;;15.36;84.96;100253.17;105308;1256;98897;-78
2024/04/09 02:28:26;;;;;;;11.80;9.70;;;;;;;15.33;85.07;100251.84;105703;1256;101372;-78
2024/04/09 02:31:12;;;;;;;11.30;9.70;;;;;;;15.30;85.06;100245.65;105694;1259;99167;-79
2024/04/09 02:33:57;;;;;;;15.20;10.10;;;;;;;15.26;85.16;100246.61;105614;1261;97981;-79
2024/04/09 02:36:44;;;;;;;12.80;9.40;;;;;;;15.21;85.20;100246.95;105504;1262;97994;-80
2024/04/09 02:39:31;;;;;;;11.70;9.50;;;;;;;15.18;85.31;100248.44;105627;1259;98532;-80
2024/04/09 02:42:16;;;;;;;13.60;9.70;;;;;;;15.16;85.29;100252.70;105632;1261;101395;-80
2024/04/09 02:45:04;;;;;;;17.00;9.30;;;;;;;15.13;85.48;100253.20;105457;1258;100358;-80
2024/04/09 02:47:49;;;;;;;13.50;9.80;;;;;;;15.10;85.38;100256.50;106133;1261;98985;-80
2024/04/09 02:50:35;;;;;;;12.20;9.80;;;;;;;15.08;85.58;100255.64;106093;1256;97881;-81
2024/04/09 02:53:20;;;;;;;12.50;9.70;;;;;;;15.07;85.82;100255.05;106250;1256;97886;-81
2024/04/09 02:56:08;;;;;;;12.60;9.10;;;;;;;15.04;85.73;100256.36;106164;1255;101472;-80
2024/04/09 02:58:54;;;;;;;14.20;9.10;;;;;;;15.02;86.18;100253.98;106329;1255;99309;-79
2024/04/09 03:01:39;;;;;;;11.90;8.90;;;;;;;14.98;86.15;100253.22;106323;1260;98500;-78
2024/04/09 03:04:25;;;;;;;12.10;9.30;;;;;;;14.96;86.03;100256.66;105437;1260;99062;-79
2024/04/09 03:07:11;;;;;;;11.80;9.60;;;;;;;14.94;86.17;100256.71;106653;1260;99764;-80
2024/04/09 03:09:56;;;;;;;14.50;8.80;;;;;;;14.93;86.33;100259.71;105602;1258;101412;-79
2024/04/09 03:12:42;;;;;;;13.10;9.40;;;;;;;14.91;86.26;100260.55;105691;1261;99106;-80
2024/04/09 03:15:29;;;;;;;13.20;9.30;;;;;;;14.88;86.41;100262.41;105598;1259;98410;-80
2024/04/09 03:18:15;;;;;;;19.20;10.10;;;;;;;14.88;86.75;100259.80;105566;1258;97981;-79
2024/04/09 03:21:01;;;;;;;14.10;9.70;;;;;;;14.88;86.95;100259.00;105354;1256;98438;-79
2024/04/09 03:23:46;;;;;;;19.30;9.60;;;;;;;14.88;87.01;100260.89;106073;1255;101927;-79
2024/04/09 03:26:32;;;;;;;15.20;10.10;;;;;;;14.86;87.31;100262.02;105800;1255;100372;-79
2024/04/09 03:29:19;;;;;;;13.20;9.10;;;;;;;14.84;87.27;100264.48;105729;1258;98993;-79
2024/04/09 03:32:05;;;;;;;11.60;9.00;;;;;;;14.82;87.29;100263.46;105505;1256;97902;-77
2024/04/09 03:34:50;;;;;;;12.00;9.20;;;;;;;14.81;87.24;100262.11;105748;1258;98399;-79
2024/04/09 03:37:36;;;;;;;11.40;9.00;;;;;;;14.77;87.42;100256.68;105702;1259;101364;-78
2024/04/09 03:40:22;;;;;;;13.00;8.90;;;;;;;14.73;87.73;100257.25;105698;1261;100216;-80
2024/04/09 03:43:07;;;;;;;14.90;9.70;;;;;;;14.73;88.04;100255.88;105673;1260;98782;-80
2024/04/09 03:46:08;;;;;;;14.70;10.10;;;;;;;14.72;88.11;100254.72;106141;1268;98028;-80
2024/04/09 03:48:53;;;;;;;22.10;10.50;;;;;;;14.68;88.17;100256.55;106371;1255;98871;-80
2024/04/09 03:51:39;;;;;;;17.40;10.40;;;;;;;14.63;88.21;100257.89;106164;1255;101403;-79
2024/04/09 03:54:24;;;;;;;15.20;10.30;;;;;;;14.59;87.96;100259.83;106136;1256;99119;-80
2024/04/09 03:57:09;;;;;;;15.30;10.50;;;;;;;14.57;88.50;100261.85;106193;1256;98017;-80
2024/04/09 03:59:55;;;;;;;13.40;10.10;;;;;;;14.55;88.69;100263.89;105608;1261;97982;-79
2024/04/09 04:02:41;;;;;;;16.10;10.30;;;;;;;14.52;88.50;100265.83;105744;1256;99646;-78
2024/04/09 04:05:26;;;;;;;14.40;10.20;;;;;;;14.48;88.64;100262.58;105714;1261;102965;-78
2024/04/09 04:08:12;;;;;;;15.30;10.40;;;;;;;14.46;88.75;100260.98;105684;1258;99108;-79
2024/04/09 04:11:00;;;;;;;17.10;9.90;;;;;;;14.45;89.04;100263.52;105709;1261;98985;-79
2024/04/09 04:13:46;;;;;;;13.30;9.40;;;;;;;14.44;89.28;100264.19;105566;1261;99259;-79
2024/04/09 04:16:32;;;;;;;12.30;9.80;;;;;;;14.44;89.45;100262.73;105688;1260;98491;-79
2024/04/09 04:19:17;;;;;;;15.40;10.00;;;;;;;14.44;89.46;100263.11;105680;1263;101983;-80
2024/04/09 04:22:02;;;;;;;12.50;10.20;;;;;;;14.46;89.84;100260.22;105944;1259;100331;-79
2024/04/09 04:24:48;;;;;;;15.00;10.20;;;;;;;14.47;89.88;100255.27;105591;1261;97980;-80
2024/04/09 04:27:34;;;;;;;14.30;9.80;;;;;;;14.49;90.01;100255.17;105686;1256;97961;-80
2024/04/09 04:30:19;;;;;;;18.80;9.60;;;;;;;14.51;90.08;100259.27;105721;1257;97985;-80
2024/04/09 04:33:05;;;;;;;13.10;9.30;;;;;;;14.52;90.34;100256.79;105678;1261;102246;-79
2024/04/09 04:35:54;;;;;;;12.90;10.30;;;;;;;14.54;90.25;100261.74;105640;1260;99095;-79
2024/04/09 04:38:40;;;;;;;14.80;10.60;;;;;;;14.55;90.20;100262.48;105602;1257;97948;-79
2024/04/09 04:41:25;;;;;;;25.00;10.90;;;;;;;14.55;90.27;100265.63;105606;1261;98064;-79
2024/04/09 04:44:11;;;;;;;13.30;9.80;;;;;;;14.56;90.39;100263.45;105690;1261;98408;-81
2024/04/09 04:46:57;;;;;;;17.60;12.10;;;;;;;14.58;90.36;100261.08;105656;1258;101862;-80
2024/04/09 04:49:43;;;;;;;14.90;11.40;;;;;;;14.60;90.42;100262.89;105636;1259;100572;-79
2024/04/09 04:52:29;;;;;;;15.00;10.70;;;;;;;14.62;90.61;100262.08;105527;1261;99029;-80
2024/04/09 04:55:15;;;;;;;17.50;10.30;;;;;;;14.63;90.76;100261.78;105616;1258;97968;-79
2024/04/09 04:58:01;;;;;;;14.20;10.80;;;;;;;14.65;90.88;100265.33;105676;1261;99300;-80
2024/04/09 05:00:47;;;;;;;17.40;10.40;;;;;;;14.67;91.01;100265.56;105618;1261;101344;-80
2024/04/09 05:03:34;;;;;;;18.60;10.30;;;;;;;14.69;91.37;100261.48;105700;1258;99828;-80
2024/04/09 05:06:19;;;;;;;15.00;11.70;;;;;;;14.72;91.56;100261.13;105692;1261;106196;-79
2024/04/09 05:09:07;;;;;;;27.10;19.50;;;;;;;14.74;91.60;100262.63;105670;1260;98301;-80
2024/04/09 05:11:53;;;;;;;18.50;14.40;;;;;;;14.77;91.63;100261.98;106224;1258;99783;-81
2024/04/09 05:14:38;;;;;;;14.20;10.90;;;;;;;14.80;91.86;100263.32;106157;1261;102504;-80
2024/04/09 05:17:24;;;;;;;15.20;11.00;;;;;;;14.83;91.68;100265.86;106159;1257;99203;-81
2024/04/09 05:20:11;;;;;;;15.50;11.10;;;;;;;14.87;91.92;100263.84;105833;1260;98787;-80
2024/04/09 05:22:59;;;;;;;18.50;10.70;;;;;;;14.93;92.15;100264.15;105922;1261;98031;-78
2024/04/09 05:25:44;;;;;;;17.00;10.50;;;;;;;14.98;92.53;100265.40;105611;1258;97871;-81
2024/04/09 05:28:30;;;;;;;13.30;9.80;;;;;;;15.03;92.46;100263.97;106187;1261;102419;-78
2024/04/09 05:31:15;;;;;;;15.30;10.50;;;;;;;15.09;92.46;100264.57;105654;1261;99110;-83
2024/04/09 05:34:03;;;;;;;19.50;10.20;;;;;;;15.15;92.45;100269.19;106051;1259;97949;-82
2024/04/09 05:36:48;;;;;;;16.50;10.20;;;;;;;15.21;92.65;100268.34;106279;1268;97962;-80
2024/04/09 05:39:34;;;;;;;15.90;10.50;;;;;;;15.27;92.74;100271.09;106244;1256;97966;-81
2024/04/09 05:42:19;;;;;;;14.40;10.30;;;;;;;15.32;92.81;100273.94;105658;1261;101382;-79
2024/04/09 05:45:08;;;;;;;13.80;10.50;;;;;;;15.37;92.81;100276.37;105640;1258;99107;-80
2024/04/09 05:47:54;;;;;;;14.60;10.00;;;;;;;15.43;92.81;100278.82;106066;1257;97976;-80
2024/04/09 05:50:39;;;;;;;17.40;10.40;;;;;;;15.47;92.76;100274.79;106243;1256;98080;-82
2024/04/09 05:53:24;;;;;;;19.90;9.60;;;;;;;15.52;92.57;100274.98;106071;1257;98728;-80
2024/04/09 05:56:10;;;;;;;15.70;9.90;;;;;;;15.57;92.61;100280.27;105560;1262;101373;-79
2024/04/09 05:58:55;;;;;;;15.00;10.10;;;;;;;15.63;92.45;100281.73;105494;1260;99889;-81
2024/04/09 06:01:41;;;;;;;18.60;10.70;;;;;;;15.70;92.58;100284.50;106294;1257;98932;-81
2024/04/09 06:04:26;;;;;;;16.00;9.60;;;;;;;15.76;92.46;100284.14;106273;1261;97966;-80
2024/04/09 06:07:12;;;;;;;13.80;9.60;;;;;;;15.83;92.68;100282.52;106209;1260;97926;-81
2024/04/09 06:09:58;;;;;;;14.90;10.70;;;;;;;15.91;92.91;100285.52;106049;1260;101342;-78
2024/04/09 06:12:44;;;;;;;11.30;9.60;;;;;;;15.98;92.75;100285.70;105679;1258;99112;-78
2024/04/09 06:15:29;;;;;;;15.90;10.60;;;;;;;16.05;92.91;100283.33;105698;1259;97952;-79
2024/04/09 06:18:14;;;;;;;15.50;11.00;;;;;;;16.11;92.73;100283.60;105774;1260;97874;-79
2024/04/09 06:21:00;;;;;;;16.30;10.40;;;;;;;16.18;92.68;100281.24;106357;1258;99382;-80
2024/04/09 06:23:45;;;;;;;20.00;11.40;;;;;;;16.26;92.66;100282.89;106280;1260;103277;-80
2024/04/09 06:26:31;;;;;;;17.80;9.80;;;;;;;16.32;92.34;100282.46;106161;1260;99970;-81
2024/04/09 06:29:16;;;;;;;11.80;10.10;;;;;;;16.39;92.16;100279.77;105993;1267;98542;-80
2024/04/09 06:32:04;;;;;;;17.10;11.30;;;;;;;16.47;92.33;100279.05;105896;1256;98012;-80
2024/04/09 06:34:50;;;;;;;17.10;11.00;;;;;;;16.56;92.60;100280.80;105615;1260;97895;-79
2024/04/09 06:37:36;;;;;;;15.00;10.10;;;;;;;16.65;92.60;100280.66;105989;1261;102035;-79
2024/04/09 06:40:22;;;;;;;14.90;9.40;;;;;;;16.74;92.58;100282.20;105767;1257;100580;-78
2024/04/09 06:43:07;;;;;;;13.90;9.40;;;;;;;16.84;92.38;100279.06;105628;1257;98977;-80
2024/04/09 06:45:53;;;;;;;15.30;9.50;;;;;;;16.93;92.56;100277.45;105569;1258;97955;-80
2024/04/09 06:48:38;;;;;;;11.80;8.40;;;;;;;17.03;92.23;100279.40;106308;1257;97984;-79
2024/04/09 06:51:23;;;;;;;16.40;9.10;;;;;;;17.12;91.91;100282.27;106151;1257;102679;-80
2024/04/09 06:54:09;;;;;;;16.00;9.10;;;;;;;17.21;91.32;100284.02;105592;1260;99138;-79
2024/04/09 06:56:54;;;;;;;14.60;8.40;;;;;;;17.30;91.18;100285.43;105517;1258;97883;-78
2024/04/09 06:59:40;;;;;;;13.90;8.20;;;;;;;17.39;91.24;100282.96;105543;1264;97769;-79
2024/04/09 07:02:25;;;;;;;14.00;8.20;;;;;;;17.49;91.02;100280.69;105579;1260;99246;-79
2024/04/09 07:05:11;;;;;;;15.40;8.20;;;;;;;17.58;91.17;100285.08;105631;1258;101926;-79
2024/04/09 07:07:56;;;;;;;13.30;8.30;;;;;;;17.70;90.91;100281.52;105615;1260;99176;-78
2024/04/09 07:10:42;;;;;;;11.50;7.40;;;;;;;17.80;90.31;100279.16;105551;1258;149956;-80
2024/04/09 07:13:27;;;;;;;11.50;7.20;;;;;;;17.90;89.88;100282.16;105613;1260;97957;-77
2024/04/09 07:16:12;;;;;;;9.40;6.90;;;;;;;17.98;89.56;100281.98;105380;1257;99250;-77
2024/04/09 07:18:59;;;;;;;13.70;7.10;;;;;;;18.09;89.45;100282.86;105190;1260;102613;-77
2024/04/09 07:21:44;;;;;;;11.50;7.20;;;;;;;18.19;89.14;100277.74;105413;1257;99155;-78
2024/04/09 07:24:29;;;;;;;17.40;7.70;;;;;;;18.30;88.78;100275.23;105402;1258;98083;-79
2024/04/09 07:27:15;;;;;;;10.20;6.20;;;;;;;18.42;88.84;100280.66;105374;1260;97994;-77
2024/04/09 07:30:00;;;;;;;15.50;7.20;;;;;;;18.54;88.48;100279.30;105273;1258;98062;-78
2024/04/09 07:32:46;;;;;;;13.70;6.30;;;;;;;18.65;88.16;100285.41;105366;1258;102108;-79
2024/04/09 07:35:32;;;;;;;10.50;5.40;;;;;;;18.73;87.38;100280.38;105551;1260;99089;-79
2024/04/09 07:38:18;;;;;;;12.80;6.50;;;;;;;18.83;87.59;100277.15;105580;1261;98798;-78
2024/04/09 07:41:03;;;;;;;11.90;5.60;;;;;;;18.95;87.41;100274.84;105645;1260;98069;-79
2024/04/09 07:43:52;;;;;;;10.80;6.10;;;;;;;19.06;86.62;100271.73;105583;1257;98415;-78
2024/04/09 07:46:38;;;;;;;9.60;5.00;;;;;;;19.18;85.87;100277.73;105638;1259;101331;-79
2024/04/09 07:49:24;;;;;;;10.40;4.80;;;;;;;19.31;85.64;100274.55;105598;1261;99150;-80
2024/04/09 07:52:10;;;;;;;9.50;4.30;;;;;;;19.43;84.27;100275.48;105589;1261;97962;-78
2024/04/09 07:54:55;;;;;;;6.40;4.00;;;;;;;19.55;84.41;100271.61;105698;1257;97953;-80
2024/04/09 07:57:43;;;;;;;7.80;4.00;;;;;;;19.68;83.26;100274.83;105781;1260;98592;-78
2024/04/09 08:00:28;;;;;;;8.40;3.60;;;;;;;19.80;81.86;100271.81;105695;1259;101455;-79
2024/04/09 08:03:14;;;;;;;9.80;3.90;;;;;;;19.93;80.71;100274.90;105646;1263;99190;-79
2024/04/09 08:06:00;;;;;;;4.60;3.10;;;;;;;20.07;80.60;100273.52;105696;1258;99265;-80
2024/04/09 08:08:45;;;;;;;8.10;3.00;;;;;;;20.21;79.45;100274.94;105643;1258;97987;-79
2024/04/09 08:11:30;;;;;;;6.00;2.70;;;;;;;20.35;78.35;100271.20;105682;1260;97760;-79
2024/04/09 08:14:16;;;;;;;13.90;3.40;;;;;;;20.46;76.86;100267.17;105713;1261;101345;-80
2024/04/09 08:17:01;;;;;;;5.80;2.60;;;;;;;20.60;75.57;100270.94;105639;1257;99099;-79
2024/04/09 08:19:46;;;;;;;7.40;2.50;;;;;;;20.75;74.99;100269.19;105594;1261;97888;-80
2024/04/09 08:22:32;;;;;;;9.00;2.60;;;;;;;20.87;73.74;100266.95;105562;1256;98836;-79
2024/04/09 08:25:19;;;;;;;6.90;2.40;;;;;;;20.99;72.91;100265.89;105625;1257;98837;-79
2024/04/09 08:28:04;;;;;;;7.00;2.70;;;;;;;21.11;72.91;100262.70;105594;1260;102640;-79
2024/04/09 08:30:52;;;;;;;4.30;2.40;;;;;;;21.21;72.17;100259.39;105526;1259;99268;-79
2024/04/09 08:33:38;;;;;;;5.30;2.50;;;;;;;21.32;71.49;100257.86;105453;1260;98530;-78
2024/04/09 08:36:23;;;;;;;9.00;2.20;;;;;;;21.42;70.76;100258.45;105512;1259;99038;-79
2024/04/09 08:39:09;;;;;;;5.70;2.60;;;;;;;21.52;69.71;100256.38;105620;1257;98516;-79
2024/04/09 08:41:54;;;;;;;5.20;2.00;;;;;;;21.62;69.15;100260.39;105583;1257;101352;-78
2024/04/09 08:44:40;;;;;;;4.90;2.70;;;;;;;21.69;68.29;100258.79;105583;1260;99727;-78
2024/04/09 08:47:26;;;;;;;5.30;2.10;;;;;;;21.77;68.40;100257.50;105596;1257;98099;-80
2024/04/09 08:50:14;;;;;;;3.70;2.20;;;;;;;21.86;67.80;100252.96;105624;1257;97967;-80
2024/04/09 08:53:00;;;;;;;4.10;2.40;;;;;;;21.95;67.26;100252.39;105660;1260;98081;-79
2024/04/09 08:55:53;;;;;;;6.30;2.40;;;;;;;22.04;66.66;100247.13;105725;1257;101371;-79
2024/04/09 08:58:39;;;;;;;2.40;2.10;;;;;;;22.16;66.81;100247.47;105538;1260;99129;-78
2024/04/09 09:01:31;;;;;;;2.90;2.00;;;;;;;22.28;66.32;100248.52;105596;1260;98367;-79
2024/04/09 09:04:16;;;;;;;4.60;1.70;;;;;;;22.40;65.14;100241.86;105527;1263;97981;-78
2024/04/09 09:07:15;;;;;;;8.70;1.80;;;;;;;22.50;64.53;100240.40;105853;1261;98496;-79
2024/04/09 09:10:06;;;;;;;5.00;1.50;;;;;;;22.60;64.15;100238.40;105642;1260;111183;-78
2024/04/09 09:13:02;;;;;;;4.60;1.90;;;;;;;22.69;63.94;100240.03;105611;1259;99711;-78
2024/04/09 09:15:57;;;;;;;5.70;1.80;;;;;;;22.79;63.38;100239.42;105718;1257;98063;-80
2024/04/09 09:18:42;;;;;;;1.70;1.40;;;;;;;22.89;61.82;100235.75;105547;1260;98754;-78
2024/04/09 09:21:28;;;;;;;2.90;1.50;;;;;;;22.97;60.35;100231.73;105559;1258;97974;-79
2024/04/09 09:24:16;;;;;;;4.30;1.60;;;;;;;23.05;59.09;100230.68;105982;1257;101995;-80
2024/04/09 09:27:07;;;;;;;1.80;1.30;;;;;;;23.13;58.49;100230.22;106232;1256;100352;-79
2024/04/09 09:29:54;;;;;;;3.60;1.50;;;;;;;23.19;57.18;100227.04;106370;1260;98539;-81
2024/04/09 09:32:47;;;;;;;3.20;1.70;;;;;;;23.24;56.97;100227.36;106563;1256;97904;-82
2024/04/09 09:35:35;;;;;;;5.50;1.50;;;;;;;23.32;56.79;100224.98;106302;1260;98497;-84
2024/04/09 09:38:23;;;;;;;3.60;1.40;;;;;;;23.38;55.78;100220.48;106193;1263;102650;-83
2024/04/09 09:41:11;;;;;;;3.70;1.80;;;;;;;23.45;55.60;100219.38;106397;1257;99378;-80
2024/04/09 09:43:57;;;;;;;2.80;1.70;;;;;;;23.54;55.30;100213.97;106375;1257;98849;-82
2024/04/09 09:46:45;;;;;;;6.20;1.60;;;;;;;23.62;55.22;100209.05;106410;1257;97990;-80
2024/04/09 09:49:32;;;;;;;4.80;1.50;;;;;;;23.72;55.38;100211.78;107383;1257;97898;-81
2024/04/09 09:52:18;;;;;;;6.60;1.70;;;;;;;23.79;54.86;100207.21;106348;1258;102601;-80
2024/04/09 09:55:08;;;;;;;6.30;1.80;;;;;;;23.86;55.33;100207.22;106395;1256;99108;-79
2024/04/09 09:57:59;;;;;;;4.20;1.50;;;;;;;23.95;54.94;100208.21;106179;1257;97877;-80
2024/04/09 10:00:46;;;;;;;8.60;2.30;;;;;;;24.03;53.99;100204.71;106288;1258;98074;-79
2024/04/09 10:03:31;;;;;;;3.70;1.70;;;;;;;24.10;53.32;100206.15;105628;1260;98051;-78
2024/04/09 10:06:17;;;;;;;6.00;1.30;;;;;;;24.16;53.61;100206.27;105649;1257;101356;-86
2024/04/09 10:09:05;;;;;;;3.90;1.40;;;;;;;24.21;52.85;100199.83;106869;1257;99112;-81
2024/04/09 10:11:52;;;;;;;2.50;1.50;;;;;;;24.26;53.37;100194.82;106825;1257;98959;-82
2024/04/09 10:14:38;;;;;;;5.90;1.50;;;;;;;24.29;52.80;100196.59;106731;1256;99077;-80
2024/04/09 10:17:47;;;;;;;7.30;1.90;;;;;;;24.33;52.73;100194.75;106734;1256;97860;-80
2024/04/09 10:20:36;;;;;;;4.60;1.60;;;;;;;24.39;52.27;100191.20;106595;1256;101351;-80
2024/04/09 10:23:22;;;;;;;6.90;1.50;;;;;;;24.47;52.70;100190.67;106624;1257;99262;-80
2024/04/09 10:26:11;;;;;;;3.90;1.50;;;;;;;24.55;52.54;100185.91;106145;1257;98850;-79
2024/04/09 10:29:05;;;;;;;6.30;1.60;;;;;;;24.61;52.46;100184.79;106799;1258;97951;-80
2024/04/09 10:31:52;;;;;;;5.70;1.40;;;;;;;24.69;52.40;100179.45;106822;1256;98281;-80
2024/04/09 10:34:37;;;;;;;6.00;1.30;;;;;;;24.79;52.74;100181.30;106744;1256;101349;-81
2024/04/09 10:37:23;;;;;;;4.30;1.30;;;;;;;24.89;52.40;100183.00;107014;1255;99101;-81
2024/04/09 10:40:10;;;;;;;3.60;1.40;;;;;;;24.96;52.09;100177.71;106830;1255;97915;-79
2024/04/09 10:42:55;;;;;;;8.60;2.10;;;;;;;25.05;51.63;100173.51;106577;1256;98156;-80
2024/04/09 10:45:42;;;;;;;5.40;1.50;;;;;;;25.14;51.52;100172.08;106229;1257;99559;-80
2024/04/09 10:48:27;;;;;;;5.70;1.50;;;;;;;25.21;51.08;100173.80;106277;1259;101460;-80
2024/04/09 10:51:13;;;;;;;3.90;2.20;;;;;;;25.29;51.03;100172.65;106328;1258;99338;-80
2024/04/09 10:54:02;;;;;;;3.50;1.70;;;;;;;25.39;51.12;100173.25;106214;1257;97999;-79
2024/04/09 10:56:58;;;;;;;4.20;2.00;;;;;;;25.48;51.07;100169.59;106664;1255;98046;-80
2024/04/09 10:59:43;;;;;;;8.20;1.60;;;;;;;25.54;50.59;100168.96;106931;1260;96100;-81
2024/04/09 11:02:28;;;;;;;4.00;1.70;;;;;;;25.58;50.25;100164.40;106630;1255;101415;-80
2024/04/09 11:05:17;;;;;;;5.40;1.70;;;;;;;25.64;50.41;100163.40;106059;1259;99154;-80
2024/04/09 11:08:03;;;;;;;12.30;1.90;;;;;;;25.71;50.52;100159.99;105949;1255;98998;-79
2024/04/09 11:10:50;;;;;;;4.60;1.70;;;;;;;25.77;50.29;100158.70;106373;1257;97913;-79
2024/04/09 11:13:35;;;;;;;9.60;2.00;;;;;;;25.82;50.47;100155.77;106296;1256;98610;-82
2024/04/09 11:16:21;;;;;;;4.70;1.40;;;;;;;25.87;50.15;100155.45;106571;1256;101456;-80
2024/04/09 11:19:07;;;;;;;5.20;1.70;;;;;;;25.91;49.73;100148.16;106676;1260;100364;-81
2024/04/09 11:21:53;;;;;;;3.50;1.50;;;;;;;25.93;50.16;100144.31;106392;1260;98339;-82
2024/04/09 11:24:39;;;;;;;4.10;1.80;;;;;;;25.93;49.42;100139.00;106366;1257;97978;-80
2024/04/09 11:27:24;;;;;;;5.70;2.20;;;;;;;25.92;49.45;100135.19;106637;1255;98411;-80
2024/04/09 11:30:22;;;;;;;7.10;2.20;;;;;;;25.92;49.98;100134.69;106722;1260;101741;-80
2024/04/09 11:33:09;;;;;;;4.00;2.30;;;;;;;25.93;50.16;100130.83;106733;1256;100891;-80
2024/04/09 11:35:56;;;;;;;3.80;2.30;;;;;;;25.97;50.35;100124.08;106081;1256;98303;-81
2024/04/09 11:38:42;;;;;;;3.80;2.30;;;;;;;26.00;50.85;100119.51;106264;1260;98054;-81
2024/04/09 11:41:28;;;;;;;3.90;2.30;;;;;;;26.05;50.52;100120.37;106582;1257;100258;-82
2024/04/09 11:44:20;;;;;;;8.10;2.30;;;;;;;26.08;49.97;100116.05;106436;1260;101365;-81
2024/04/09 11:47:06;;;;;;;4.10;2.10;;;;;;;26.14;49.79;100116.02;106225;1260;99529;-80
2024/04/09 11:49:52;;;;;;;4.60;2.00;;;;;;;26.20;49.29;100111.70;106740;1256;98579;-81
2024/04/09 11:52:38;;;;;;;7.80;2.40;;;;;;;26.25;49.34;100109.80;106603;1258;97972;-80
2024/04/09 11:55:23;;;;;;;9.20;2.40;;;;;;;26.29;49.56;100106.98;106815;1255;97892;-81
2024/04/09 11:58:09;;;;;;;7.40;3.40;;;;;;;26.33;49.55;100104.04;106745;1258;101382;-80
2024/04/09 12:00:56;;;;;;;7.00;2.30;;;;;;;26.38;49.09;100098.95;106686;1258;99100;-80
2024/04/09 12:03:41;;;;;;;3.60;2.20;;;;;;;26.42;48.69;100091.13;106700;1256;97939;-81
2024/04/09 12:06:28;;;;;;;4.80;2.00;;;;;;;26.46;48.91;100090.34;106662;1257;97985;-81
2024/04/09 12:09:14;;;;;;;7.60;2.40;;;;;;;26.50;49.73;100091.14;106868;1255;96944;-81
2024/04/09 12:11:59;;;;;;;3.40;2.30;;;;;;;26.52;49.56;100088.84;106752;1255;101393;-80
2024/04/09 12:14:45;;;;;;;7.80;2.30;;;;;;;26.56;48.76;100089.59;106884;1258;99153;-81
2024/04/09 12:17:31;;;;;;;6.70;2.10;;;;;;;26.59;48.75;100086.08;106610;1255;98227;-81
2024/04/09 12:20:18;;;;;;;4.80;2.40;;;;;;;26.60;48.38;100086.61;106746;1258;97992;-81
2024/04/09 12:23:04;;;;;;;6.10;2.20;;;;;;;26.60;47.84;100081.93;107596;1257;97902;-81
2024/04/09 12:25:49;;;;;;;5.40;2.10;;;;;;;26.63;47.63;100078.96;106630;1256;109874;-80
2024/04/09 12:28:35;;;;;;;5.90;2.10;;;;;;;26.67;47.40;100076.84;106268;1260;100153;-80
2024/04/09 12:31:21;;;;;;;3.70;2.00;;;;;;;26.73;47.64;100075.33;106289;1254;97945;-80
2024/04/09 12:34:06;;;;;;;10.80;2.50;;;;;;;26.79;46.97;100073.44;106408;1257;97907;-80
2024/04/09 12:36:52;;;;;;;3.90;1.70;;;;;;;26.84;46.58;100070.38;106289;1260;98147;-80